ERB weather

Ernabella Airport
South Australia, Australia

Public forecast

Using degrees Celsius for public forecast. Weather courtesy of forecast.io.

METAR (pilot weather report)

Closest report is Ayers Rock Connellan Airport, 91.9 nm (170.1 km) NW. Retrieved 2019/03/23 14:00 UTC (13 minutes ago):

YAYE 231400Z AUTO 16018G29KT 9999 // NCD 32/05 Q1008

TAF (pilot weather forecast)

Closest forecast is Alice Springs Airport, 174.7 nm (323.5 km) NNE. Retrieved 2019/03/23 12:00 UTC (2 hours ago):

TAF YBAS 231122Z 2312/2412 06008KT CAVOK FM231600 30005KT CAVOK FM240000 07012KT 9999 SCT050 PROB30 TEMPO 2406/2412 VRB25G40KT 2000 TSRA BKN020 SCT050CB